Airport ID:KJWN
Update Time (UTC):26/11/2020 18:59
Wind Speed (Knots):4
Wind Direction (Magnetic):290
Temperature (°C):13
Dew Point (°C):6
Humidity (%):65
Altimeter (inHg):30.09
Density Altitude (Feet):
Visibility:10+
Clouds (Hundreds of feet):OVC026
Present Weather:
METAR:METAR KJWN 261855Z AUTO 00000KT 10SM OVC026 12/06 A3009 RMK A01

The data displayed is for advisory purposes only and is not to be used for flight planning or operations.